Time;durP1;ratioP1;P1;durP2;ratioP2;P2;SDS_P1;SDS_P2;PMS_P1;PMS_P2;Temp;Humidity;BMP_temperature;BMP_pressure;BME280_temperature;BME280_humidity;BME280_pressure;Samples;Min_cycle;Max_cycle;Signal;HPM_P1;HPM_P2
2022/01/21 00:02:06;;;;;;;1.37;0.93;;;;;;;2.16;78.88;97350.41;5058425;28;21143;-68
2022/01/21 00:04:34;;;;;;;13.63;1.23;;;;;;;2.29;78.24;97348.66;5058121;28;20198;-68
2022/01/21 00:07:01;;;;;;;0.40;0.40;;;;;;;2.30;78.81;97345.97;5058196;28;20232;-68
2022/01/21 00:09:28;;;;;;;2.07;1.40;;;;;;;2.24;78.04;97361.13;5058431;28;20198;-68
2022/01/21 00:11:55;;;;;;;1.13;0.60;;;;;;;2.17;78.96;97360.69;5058029;28;20233;-67
2022/01/21 00:14:22;;;;;;;7.13;0.80;;;;;;;1.99;78.77;97354.09;5057586;28;20226;-68
2022/01/21 00:16:49;;;;;;;10.47;1.17;;;;;;;2.19;78.27;97363.19;5057846;28;20259;-67
2022/01/21 00:19:17;;;;;;;2.07;1.20;;;;;;;2.35;77.84;97354.31;5058733;28;20204;-68
2022/01/21 00:30:13;;;;;;;0.40;0.30;;;;;;;1.99;79.83;97358.47;5057793;28;20223;-68
2022/01/21 00:32:40;;;;;;;1.37;1.00;;;;;;;2.22;80.23;97357.81;5057674;28;20631;-68
2022/01/21 00:35:08;;;;;;;2.00;1.33;;;;;;;2.26;80.37;97357.50;5057486;28;20211;-68
2022/01/21 00:37:35;;;;;;;3.03;1.07;;;;;;;2.30;80.27;97361.56;5057353;28;20224;-69
2022/01/21 00:40:02;;;;;;;0.40;0.40;;;;;;;2.08;80.77;97350.06;5058841;28;20223;-68
2022/01/21 00:45:14;;;;;;;2.47;1.67;;;;;;;2.14;81.26;97349.66;5044304;28;20355;-68
2022/01/21 00:47:40;;;;;;;1.43;0.97;;;;;;;2.05;81.47;97358.06;5057914;28;20689;-68
2022/01/21 00:50:08;;;;;;;0.90;0.90;;;;;;;2.13;80.96;97368.81;5058376;28;20208;-68
2022/01/21 00:52:35;;;;;;;0.73;0.73;;;;;;;1.86;82.36;97368.81;5056349;28;20227;-68
2022/01/21 00:55:01;;;;;;;2.53;1.23;;;;;;;1.73;84.62;97369.66;5057568;28;20211;-68
2022/01/21 00:57:29;;;;;;;2.10;0.80;;;;;;;2.19;84.72;97368.41;5057581;28;20229;-68
2022/01/21 00:59:56;;;;;;;2.90;1.27;;;;;;;1.82;86.29;97374.31;5056997;28;20229;-68
2022/01/21 01:02:22;;;;;;;1.13;1.00;;;;;;;1.67;87.88;97367.47;5055826;28;20198;-67
2022/01/21 01:04:49;;;;;;;17.43;1.90;;;;;;;1.54;89.81;97376.97;5057945;28;20203;-68
2022/01/21 01:07:15;;;;;;;1.03;0.93;;;;;;;1.68;89.63;97376.09;5057023;28;20227;-68
2022/01/21 01:09:43;;;;;;;0.87;0.83;;;;;;;1.49;90.87;97378.16;5057061;28;20212;-68
2022/01/21 01:12:19;;;;;;;2.23;1.20;;;;;;;1.70;91.05;97380.25;5057374;28;20203;-68
2022/01/21 01:20:15;;;;;;;1.00;1.00;;;;;;;1.55;92.38;97380.38;5057155;28;20267;-67
2022/01/21 01:22:50;;;;;;;4.00;1.67;;;;;;;1.74;92.15;97381.72;5056839;28;20215;-68
2022/01/21 01:28:01;;;;;;;1.90;0.87;;;;;;;1.60;92.62;97375.75;5056710;28;20232;-67
2022/01/21 01:30:31;;;;;;;1.70;1.37;;;;;;;1.66;93.19;97383.16;5057640;28;20212;-68
2022/01/21 01:33:00;;;;;;;2.50;0.97;;;;;;;1.62;93.21;97392.91;5055944;28;20290;-68
2022/01/21 01:35:29;;;;;;;2.00;1.47;;;;;;;1.67;92.77;97393.44;5057457;28;20231;-68
2022/01/21 01:38:15;;;;;;;1.27;0.83;;;;;;;1.56;93.51;97393.25;5056768;28;20228;-68
2022/01/21 01:40:45;;;;;;;7.23;1.37;;;;;;;1.63;92.33;97397.16;5056588;28;20209;-68
2022/01/21 01:51:24;;;;;;;0.50;0.50;;;;;;;1.48;92.37;97395.50;5057054;28;20210;-68
2022/01/21 01:53:53;;;;;;;1.33;1.07;;;;;;;1.71;92.17;97394.09;5056877;28;20235;-68
2022/01/21 01:56:24;;;;;;;0.93;0.93;;;;;;;1.66;91.60;97398.75;5056908;28;20212;-68
2022/01/21 01:58:50;;;;;;;1.40;1.13;;;;;;;1.56;90.95;97403.66;5056213;28;20328;-68
2022/01/21 02:01:18;;;;;;;6.17;2.23;;;;;;;1.70;90.79;97398.44;5057422;28;20219;-68
2022/01/21 02:03:45;;;;;;;0.70;0.70;;;;;;;1.58;90.78;97406.16;5055907;28;20202;-68
2022/01/21 02:06:11;;;;;;;1.03;0.83;;;;;;;1.69;90.20;97396.75;5056759;28;20208;-68
2022/01/21 02:08:38;;;;;;;1.23;0.80;;;;;;;1.71;90.00;97400.13;5056101;28;20220;-68
2022/01/21 02:11:05;;;;;;;5.90;1.00;;;;;;;1.67;89.09;97396.03;5058685;28;20204;-68
2022/01/21 02:13:34;;;;;;;0.60;0.60;;;;;;;1.64;89.21;97408.38;5059071;28;20236;-68
2022/01/21 02:16:06;;;;;;;8.23;1.23;;;;;;;1.80;88.87;97402.97;5060950;28;20684;-68
2022/01/21 02:21:32;;;;;;;3.43;1.63;;;;;;;1.59;89.42;97406.09;5060576;28;20207;-68
2022/01/21 02:24:00;;;;;;;1.03;0.90;;;;;;;1.68;88.66;97399.47;5060304;28;20200;-68
2022/01/21 02:26:27;;;;;;;0.60;0.60;;;;;;;1.60;88.95;97394.75;5060335;28;21048;-68
2022/01/21 02:28:54;;;;;;;1.27;0.50;;;;;;;1.41;88.98;97381.25;5059463;28;20728;-68
2022/01/21 02:31:21;;;;;;;0.77;0.77;;;;;;;1.53;88.70;97388.28;5060605;28;20200;-68
2022/01/21 02:33:48;;;;;;;3.00;2.70;;;;;;;1.69;88.28;97385.56;5059326;28;20237;-68
2022/01/21 02:36:15;;;;;;;0.63;0.63;;;;;;;1.68;87.70;97392.53;5059979;28;20229;-67
2022/01/21 02:38:43;;;;;;;1.30;1.20;;;;;;;1.66;87.30;97391.78;5059798;28;20209;-68
2022/01/21 02:41:10;;;;;;;1.53;1.43;;;;;;;1.64;87.25;97392.78;5059720;28;20639;-68
2022/01/21 02:43:37;;;;;;;7.63;1.57;;;;;;;1.60;86.55;97399.13;5059004;28;20199;-68
2022/01/21 02:46:07;;;;;;;1.57;1.17;;;;;;;1.58;86.36;97401.81;5060171;28;20201;-68
2022/01/21 02:48:37;;;;;;;2.33;1.97;;;;;;;1.63;86.18;97411.91;5061204;28;20196;-68
2022/01/21 02:51:07;;;;;;;1.87;1.37;;;;;;;1.85;85.97;97406.09;5059957;28;20312;-68
2022/01/21 02:54:04;;;;;;;3.77;0.87;;;;;;;1.72;85.61;97404.38;5059432;28;20280;-68
2022/01/21 02:56:33;;;;;;;2.97;1.13;;;;;;;1.93;84.63;97406.44;5059870;28;20222;-68
2022/01/21 02:59:00;;;;;;;4.03;1.67;;;;;;;1.69;84.96;97407.16;5059459;28;20211;-68
2022/01/21 03:01:26;;;;;;;3.23;1.50;;;;;;;1.75;84.88;97408.56;5059241;28;20683;-68
2022/01/21 03:03:54;;;;;;;1.60;1.17;;;;;;;1.60;85.17;97396.50;5063718;28;20205;-68
2022/01/21 03:06:23;;;;;;;1.17;1.07;;;;;;;1.74;84.72;97397.31;5059942;28;20216;-68
2022/01/21 03:08:52;;;;;;;0.60;0.60;;;;;;;1.77;84.69;97389.34;5059720;28;20207;-68
2022/01/21 03:11:20;;;;;;;1.27;1.10;;;;;;;1.51;84.37;97392.72;5059776;28;20204;-68
2022/01/21 03:13:48;;;;;;;3.23;1.23;;;;;;;1.67;85.11;97395.19;5059262;28;20235;-68
2022/01/21 03:16:15;;;;;;;0.60;0.60;;;;;;;1.53;84.98;97403.03;5058691;28;20226;-68
2022/01/21 03:18:42;;;;;;;2.37;1.27;;;;;;;1.40;85.02;97397.75;5060188;28;20342;-67
2022/01/21 03:21:15;;;;;;;1.53;0.90;;;;;;;1.66;84.78;97403.94;5060437;28;20207;-68
2022/01/21 03:23:43;;;;;;;1.53;0.83;;;;;;;1.54;84.24;97417.66;5058692;28;21088;-68
2022/01/21 03:26:09;;;;;;;1.43;1.10;;;;;;;1.52;85.02;97427.31;5060070;28;20210;-68
2022/01/21 03:28:36;;;;;;;2.00;1.00;;;;;;;1.49;84.87;97425.75;5060426;28;20208;-68
2022/01/21 03:31:04;;;;;;;1.07;0.90;;;;;;;1.66;84.19;97420.34;5059619;28;20209;-67
2022/01/21 03:33:30;;;;;;;3.50;1.23;;;;;;;1.64;84.27;97423.97;5058909;28;20973;-69
2022/01/21 03:35:57;;;;;;;0.87;0.83;;;;;;;1.47;85.15;97432.78;5059139;28;20209;-69
2022/01/21 03:38:26;;;;;;;1.90;1.37;;;;;;;1.54;84.92;97436.69;5058528;28;20205;-69
2022/01/21 03:40:53;;;;;;;0.93;0.70;;;;;;;1.44;85.11;97438.19;5058883;28;20220;-68
2022/01/21 03:43:20;;;;;;;0.83;0.77;;;;;;;1.47;85.10;97437.97;5058483;28;20215;-69
2022/01/21 03:45:46;;;;;;;0.60;0.60;;;;;;;1.46;85.04;97432.88;5058552;28;20204;-69
2022/01/21 03:48:15;;;;;;;9.53;0.93;;;;;;;1.52;85.04;97438.53;5058534;28;20229;-69
2022/01/21 03:50:41;;;;;;;2.87;1.50;;;;;;;1.31;85.54;97447.66;5058816;28;20204;-69
2022/01/21 03:53:08;;;;;;;1.20;1.10;;;;;;;1.51;85.13;97439.47;5057642;28;20685;-69
2022/01/21 03:55:35;;;;;;;2.37;0.80;;;;;;;1.51;84.90;97443.84;5055542;28;20231;-69
2022/01/21 03:58:03;;;;;;;3.87;1.67;;;;;;;1.53;85.28;97450.59;5058445;28;20234;-69
2022/01/21 04:00:33;;;;;;;1.30;1.00;;;;;;;1.49;85.46;97451.72;5059133;28;20216;-69
2022/01/21 04:03:00;;;;;;;1.73;1.27;;;;;;;1.63;84.71;97459.50;5057288;28;20232;-68
2022/01/21 04:05:28;;;;;;;0.83;0.83;;;;;;;1.63;84.51;97456.06;5058888;28;21049;-70
2022/01/21 04:07:55;;;;;;;3.17;1.83;;;;;;;1.49;84.71;97458.66;5058326;28;20224;-68
2022/01/21 04:10:21;;;;;;;0.50;0.50;;;;;;;1.48;84.83;97463.03;5058497;28;20216;-69
2022/01/21 04:12:48;;;;;;;0.90;0.90;;;;;;;1.38;84.87;97461.91;5057114;28;20916;-69
2022/01/21 04:15:15;;;;;;;4.33;1.30;;;;;;;1.49;85.17;97458.66;5059534;28;20231;-69
2022/01/21 04:17:41;;;;;;;0.63;0.60;;;;;;;1.37;85.67;97449.84;5058332;28;20222;-69
2022/01/21 04:20:13;;;;;;;4.10;2.60;;;;;;;1.48;84.88;97450.03;5057811;28;20639;-69
2022/01/21 04:22:41;;;;;;;4.07;1.20;;;;;;;1.50;85.32;97445.59;5057539;28;20212;-69
2022/01/21 04:25:09;;;;;;;1.27;1.17;;;;;;;1.53;84.97;97442.81;5058227;28;20200;-69
2022/01/21 04:27:35;;;;;;;1.60;1.50;;;;;;;1.31;84.25;97447.66;5058032;28;21053;-69
2022/01/21 04:30:03;;;;;;;1.60;1.10;;;;;;;1.47;84.64;97450.97;5058361;28;20219;-68
2022/01/21 04:32:30;;;;;;;2.93;1.33;;;;;;;1.36;84.45;97453.41;5060500;28;20664;-68
2022/01/21 04:34:56;;;;;;;1.47;1.37;;;;;;;1.47;84.32;97444.94;5058022;28;20771;-70
2022/01/21 04:37:23;;;;;;;1.90;1.63;;;;;;;1.43;84.14;97452.09;5059188;28;20221;-69
2022/01/21 04:39:56;;;;;;;1.70;1.03;;;;;;;1.56;84.47;97442.63;5058350;28;20233;-68
2022/01/21 04:47:51;;;;;;;1.30;1.10;;;;;;;1.49;83.18;97450.88;5057792;28;20227;-69
2022/01/21 04:50:18;;;;;;;4.17;1.97;;;;;;;1.35;83.65;97454.31;5056713;28;20547;-69
2022/01/21 04:52:45;;;;;;;0.73;0.73;;;;;;;1.37;83.61;97460.22;5056656;28;20235;-70
2022/01/21 04:55:14;;;;;;;1.97;1.30;;;;;;;1.70;82.82;97455.59;5057303;28;20227;-68
2022/01/21 04:57:41;;;;;;;2.27;2.00;;;;;;;1.53;82.57;97463.59;5057862;28;20221;-69
2022/01/21 05:00:09;;;;;;;0.67;0.67;;;;;;;1.51;83.35;97470.63;5057093;28;20204;-69
2022/01/21 05:02:36;;;;;;;0.70;0.70;;;;;;;1.49;82.71;97464.72;5057135;28;20579;-69
2022/01/21 05:05:03;;;;;;;3.60;0.77;;;;;;;1.61;83.32;97471.75;5057444;28;20200;-68
2022/01/21 05:07:33;;;;;;;1.30;1.27;;;;;;;1.44;83.29;97478.88;5057206;28;20315;-69
2022/01/21 05:10:02;;;;;;;1.13;0.80;;;;;;;1.48;83.29;97475.19;5056860;28;21073;-69
2022/01/21 05:12:30;;;;;;;1.23;1.13;;;;;;;1.73;83.03;97477.97;5056481;28;20240;-70
2022/01/21 05:15:11;;;;;;;2.13;1.33;;;;;;;1.62;82.29;97490.78;5056549;28;20227;-70
2022/01/21 05:17:44;;;;;;;2.70;1.33;;;;;;;1.63;82.85;97480.28;5057454;28;20235;-69
2022/01/21 05:20:12;;;;;;;0.60;0.60;;;;;;;1.90;81.95;97476.00;5057679;28;20399;-68
2022/01/21 05:22:38;;;;;;;0.70;0.70;;;;;;;1.75;81.90;97471.75;5055964;28;20215;-69
2022/01/21 05:25:06;;;;;;;1.33;1.13;;;;;;;1.49;82.65;97475.09;5053729;28;20678;-68
2022/01/21 05:27:34;;;;;;;5.47;1.40;;;;;;;1.62;83.18;97480.41;5058353;28;20223;-69
2022/01/21 05:30:00;;;;;;;1.33;1.23;;;;;;;1.54;82.86;97488.66;5057117;28;20205;-70
2022/01/21 05:32:27;;;;;;;0.90;0.90;;;;;;;1.61;82.85;97491.69;5055803;28;20204;-70
2022/01/21 05:34:54;;;;;;;2.10;1.07;;;;;;;1.44;83.03;97486.66;5057509;28;20228;-69
2022/01/21 05:37:21;;;;;;;0.63;0.50;;;;;;;1.43;83.33;97491.03;5056931;28;20249;-68
2022/01/21 05:39:47;;;;;;;1.30;1.20;;;;;;;1.30;83.82;97495.28;5056279;28;20208;-68
2022/01/21 05:42:14;;;;;;;0.50;0.50;;;;;;;1.22;84.23;97497.50;5056588;28;20207;-68
2022/01/21 05:47:25;;;;;;;1.60;0.87;;;;;;;1.41;83.58;97503.28;5056009;28;21135;-70
2022/01/21 05:49:52;;;;;;;0.80;0.80;;;;;;;1.30;83.67;97503.09;5056997;28;20200;-69
2022/01/21 05:52:20;;;;;;;0.77;0.77;;;;;;;1.29;84.05;97504.00;5056186;28;20196;-70
2022/01/21 05:54:47;;;;;;;1.17;1.07;;;;;;;1.33;84.92;97512.44;5056441;28;20247;-70
2022/01/21 05:57:17;;;;;;;1.03;0.93;;;;;;;1.67;84.38;97522.47;5056945;28;20220;-68
2022/01/21 05:59:45;;;;;;;4.80;1.70;;;;;;;1.54;84.49;97522.41;5057188;28;20303;-68
2022/01/21 06:02:13;;;;;;;0.97;0.97;;;;;;;1.59;84.18;97522.97;5056039;28;20210;-68
2022/01/21 06:04:43;;;;;;;2.63;0.93;;;;;;;1.72;83.42;97531.69;5055872;28;20251;-68
2022/01/21 06:07:10;;;;;;;2.00;1.90;;;;;;;1.38;84.69;97529.44;5056578;28;20268;-68
2022/01/21 06:09:37;;;;;;;2.77;1.73;;;;;;;1.43;84.71;97537.78;5057016;28;20197;-68
2022/01/21 06:12:05;;;;;;;4.03;2.33;;;;;;;1.30;85.22;97534.25;5056426;28;20313;-68
2022/01/21 06:14:31;;;;;;;1.50;1.23;;;;;;;1.31;84.64;97528.13;5055983;28;20228;-68
2022/01/21 06:16:59;;;;;;;8.03;1.47;;;;;;;1.63;83.85;97529.66;5056244;28;20673;-68
2022/01/21 06:19:26;;;;;;;2.20;1.40;;;;;;;1.42;84.58;97537.88;5056423;28;20209;-69
2022/01/21 06:21:52;;;;;;;3.80;1.07;;;;;;;1.32;84.67;97539.34;5055874;28;20209;-69
2022/01/21 06:24:19;;;;;;;0.80;0.70;;;;;;;1.30;84.24;97536.84;5055818;28;20205;-68
2022/01/21 06:26:45;;;;;;;2.10;1.27;;;;;;;1.19;84.28;97540.97;5054398;28;20303;-68
2022/01/21 06:29:12;;;;;;;1.23;1.10;;;;;;;1.16;84.54;97537.72;5056444;28;20211;-68
2022/01/21 06:31:39;;;;;;;2.10;1.57;;;;;;;1.17;84.46;97535.03;5055659;28;20896;-68
2022/01/21 06:34:06;;;;;;;1.63;1.43;;;;;;;1.14;85.85;97521.41;5054927;28;20211;-68
2022/01/21 06:36:33;;;;;;;0.50;0.50;;;;;;;0.96;85.37;97538.88;5056364;28;20216;-68
2022/01/21 06:38:59;;;;;;;1.70;1.60;;;;;;;0.98;85.18;97538.78;5056885;28;20214;-69
2022/01/21 06:41:26;;;;;;;1.73;1.00;;;;;;;1.03;85.15;97545.41;5057164;28;20197;-68
2022/01/21 06:43:52;;;;;;;0.80;0.80;;;;;;;1.05;85.12;97546.13;5055035;28;20866;-69
2022/01/21 06:46:19;;;;;;;3.13;1.10;;;;;;;0.97;85.00;97550.09;5055628;28;20730;-69
2022/01/21 06:48:46;;;;;;;9.43;1.23;;;;;;;0.94;85.32;97552.84;5055774;28;20206;-69
2022/01/21 06:51:13;;;;;;;2.50;1.23;;;;;;;1.26;84.84;97561.31;5057095;28;20207;-69
2022/01/21 06:53:40;;;;;;;1.20;1.20;;;;;;;1.14;84.73;97568.13;5054835;28;20204;-69
2022/01/21 06:56:06;;;;;;;2.00;1.70;;;;;;;1.11;84.46;97570.88;5056328;28;20225;-69
2022/01/21 06:58:33;;;;;;;0.63;0.63;;;;;;;0.86;85.47;97573.22;5057635;28;20208;-69
2022/01/21 07:01:00;;;;;;;0.83;0.77;;;;;;;0.91;85.27;97574.63;5060007;28;20205;-68
2022/01/21 07:03:26;;;;;;;2.07;1.10;;;;;;;0.97;85.16;97573.44;5058573;28;20200;-69
2022/01/21 07:05:53;;;;;;;3.87;1.87;;;;;;;0.77;85.61;97584.94;5059601;28;20564;-69
2022/01/21 07:08:20;;;;;;;2.33;1.13;;;;;;;0.99;86.04;97593.19;5060357;28;20205;-69
2022/01/21 07:10:47;;;;;;;2.83;1.87;;;;;;;0.69;86.08;97588.91;5059959;28;20201;-69
2022/01/21 07:13:14;;;;;;;1.87;1.70;;;;;;;0.85;85.90;97600.09;5058140;28;20211;-69
2022/01/21 07:15:40;;;;;;;1.80;1.63;;;;;;;0.76;85.57;97598.84;5059713;28;20228;-69
2022/01/21 07:18:07;;;;;;;1.20;1.10;;;;;;;0.73;86.11;97603.38;5059721;28;20228;-69
2022/01/21 07:20:34;;;;;;;14.20;2.67;;;;;;;0.58;86.32;97594.66;5059183;28;20200;-69
2022/01/21 07:23:00;;;;;;;2.47;1.37;;;;;;;0.61;86.73;97598.84;5058435;28;20212;-69
2022/01/21 07:25:28;;;;;;;0.80;0.80;;;;;;;0.89;86.28;97602.44;5056925;28;20588;-69
2022/01/21 07:27:55;;;;;;;7.83;2.67;;;;;;;0.70;85.09;97606.97;5058806;28;20236;-69
2022/01/21 07:30:21;;;;;;;0.80;0.80;;;;;;;0.80;85.12;97602.94;5059052;28;20692;-69
2022/01/21 07:32:48;;;;;;;1.23;1.13;;;;;;;0.94;85.17;97605.63;5058342;28;20208;-69
2022/01/21 07:35:16;;;;;;;1.33;1.23;;;;;;;1.00;84.42;97605.25;5058821;28;20221;-69
2022/01/21 07:37:43;;;;;;;1.03;0.93;;;;;;;1.06;83.92;97598.88;5058861;28;20225;-69
2022/01/21 07:40:11;;;;;;;10.83;1.10;;;;;;;1.04;84.17;97603.31;5058912;28;21226;-69
2022/01/21 07:42:39;;;;;;;3.10;2.07;;;;;;;1.06;84.02;97606.66;5057655;28;20209;-69
2022/01/21 07:45:06;;;;;;;0.80;0.80;;;;;;;0.94;84.21;97613.41;5058721;28;20684;-69
2022/01/21 07:47:32;;;;;;;0.60;0.60;;;;;;;1.13;83.05;97618.38;5059357;28;20230;-69
2022/01/21 07:49:59;;;;;;;2.00;1.33;;;;;;;1.36;82.14;97616.13;5058895;28;20724;-69
2022/01/21 07:52:25;;;;;;;5.30;1.73;;;;;;;1.46;81.50;97615.50;5058108;28;20223;-69
2022/01/21 07:54:52;;;;;;;0.97;0.83;;;;;;;1.46;80.95;97609.47;5058304;28;20224;-69
2022/01/21 07:57:18;;;;;;;2.97;1.27;;;;;;;1.47;80.83;97616.34;5058793;28;20529;-69
2022/01/21 07:59:46;;;;;;;1.07;0.77;;;;;;;1.58;80.78;97609.63;5058158;28;20209;-68
2022/01/21 08:02:12;;;;;;;4.20;1.70;;;;;;;1.64;79.68;97609.22;5058798;28;20208;-68
2022/01/21 08:04:39;;;;;;;1.23;1.07;;;;;;;1.63;79.42;97610.19;5058102;28;20221;-69
2022/01/21 08:07:05;;;;;;;5.60;1.77;;;;;;;1.82;79.67;97608.19;5058498;28;20228;-68
2022/01/21 08:09:32;;;;;;;5.23;2.03;;;;;;;1.76;78.94;97608.53;5058220;28;20310;-68
2022/01/21 08:11:58;;;;;;;1.13;1.03;;;;;;;1.70;80.52;97611.47;5058865;28;20215;-68
2022/01/21 08:14:25;;;;;;;1.03;0.93;;;;;;;1.87;79.55;97608.72;5057243;28;20294;-69
2022/01/21 08:16:54;;;;;;;1.23;1.13;;;;;;;1.69;79.69;97609.81;5058073;28;20231;-68
2022/01/21 08:19:21;;;;;;;1.23;0.80;;;;;;;1.49;80.29;97617.94;5058448;28;20206;-68
2022/01/21 08:21:47;;;;;;;10.17;1.33;;;;;;;1.44;80.57;97612.19;5058833;28;20207;-68
2022/01/21 08:24:14;;;;;;;0.30;0.30;;;;;;;1.58;80.33;97620.00;5057094;28;21123;-68
2022/01/21 08:26:40;;;;;;;1.40;1.30;;;;;;;1.68;79.70;97615.94;5054321;28;20239;-68
2022/01/21 08:29:08;;;;;;;1.07;0.97;;;;;;;1.71;80.89;97607.13;5058271;28;20208;-68
2022/01/21 08:31:35;;;;;;;1.27;1.17;;;;;;;1.77;80.14;97599.81;5058181;28;20199;-68
2022/01/21 08:34:02;;;;;;;1.23;1.13;;;;;;;2.20;79.22;97598.88;5057392;28;20212;-68
2022/01/21 08:36:29;;;;;;;0.80;0.67;;;;;;;1.86;79.58;97604.47;5058140;28;20592;-68
2022/01/21 08:38:55;;;;;;;8.03;0.93;;;;;;;2.20;79.04;97619.69;5057845;28;20214;-68
2022/01/21 08:41:22;;;;;;;2.27;1.13;;;;;;;2.11;77.96;97612.44;5058541;28;20204;-68
2022/01/21 08:43:49;;;;;;;2.70;1.50;;;;;;;2.17;77.70;97606.88;5058152;28;20201;-67
2022/01/21 08:46:15;;;;;;;0.70;0.70;;;;;;;2.05;77.25;97620.59;5058346;28;20222;-67
2022/01/21 08:48:44;;;;;;;4.80;0.70;;;;;;;1.92;78.92;97620.53;5058074;28;20209;-67
2022/01/21 08:51:14;;;;;;;1.23;1.03;;;;;;;2.17;78.73;97630.28;5058223;28;20280;-68
2022/01/21 08:53:44;;;;;;;1.43;1.33;;;;;;;1.72;79.12;97622.63;5057941;28;20204;-67
2022/01/21 08:56:13;;;;;;;0.90;0.70;;;;;;;1.69;79.34;97615.00;5057124;28;20704;-68
2022/01/21 08:58:40;;;;;;;1.93;0.97;;;;;;;1.59;80.43;97610.44;5057793;28;20204;-67
2022/01/21 09:01:08;;;;;;;7.00;1.20;;;;;;;1.67;80.59;97610.81;5057864;28;20212;-68
2022/01/21 09:03:35;;;;;;;6.10;1.80;;;;;;;1.60;79.53;97610.34;5057457;28;20620;-68
2022/01/21 09:06:01;;;;;;;1.33;0.80;;;;;;;1.47;79.24;97605.97;5057528;28;20661;-69
2022/01/21 09:08:30;;;;;;;2.83;1.57;;;;;;;1.74;78.66;97599.97;5057870;28;20205;-67
2022/01/21 09:10:58;;;;;;;2.17;1.97;;;;;;;1.70;78.46;97606.28;5057808;28;20234;-67
2022/01/21 09:13:27;;;;;;;1.03;0.87;;;;;;;1.76;77.74;97610.28;5057186;28;20635;-67
2022/01/21 09:15:55;;;;;;;0.80;0.80;;;;;;;1.78;77.07;97614.47;5058081;28;20229;-68
2022/01/21 09:18:21;;;;;;;4.20;1.53;;;;;;;2.01;76.55;97613.91;5057251;28;20211;-69
2022/01/21 09:20:48;;;;;;;1.30;1.00;;;;;;;2.08;76.80;97616.06;5056699;28;20208;-69
2022/01/21 09:23:15;;;;;;;0.80;0.70;;;;;;;2.09;75.95;97622.13;5056709;28;20204;-68
2022/01/21 09:25:42;;;;;;;0.67;0.60;;;;;;;2.28;77.44;97620.91;5054346;28;20211;-68
2022/01/21 09:28:09;;;;;;;2.73;1.57;;;;;;;2.23;77.96;97624.69;5056481;28;20726;-68
2022/01/21 09:30:36;;;;;;;1.30;1.20;;;;;;;2.09;78.14;97622.13;5057621;28;20196;-68
2022/01/21 09:33:03;;;;;;;1.27;1.20;;;;;;;1.91;78.95;97637.03;5057062;28;20204;-69
2022/01/21 09:35:29;;;;;;;2.40;2.07;;;;;;;2.00;76.40;97633.88;5056399;28;20580;-67
2022/01/21 09:37:56;;;;;;;1.27;1.17;;;;;;;1.88;75.50;97651.97;5056412;28;20224;-68
2022/01/21 09:40:31;;;;;;;2.17;1.33;;;;;;;2.04;76.37;97645.78;5057471;28;20212;-68
2022/01/21 09:42:59;;;;;;;9.70;1.63;;;;;;;2.24;75.22;97647.16;5056263;28;20208;-66
2022/01/21 09:45:28;;;;;;;2.50;1.03;;;;;;;2.38;74.68;97654.97;5056536;28;20204;-67
2022/01/21 09:47:57;;;;;;;1.67;1.57;;;;;;;2.22;73.62;97652.47;5057469;28;20222;-66
2022/01/21 09:50:24;;;;;;;4.53;1.93;;;;;;;2.00;74.11;97649.50;5057627;28;20566;-68
2022/01/21 09:52:53;;;;;;;0.83;0.83;;;;;;;2.43;74.52;97654.63;5053130;28;20219;-67
2022/01/21 09:55:22;;;;;;;2.10;1.70;;;;;;;2.55;73.20;97656.44;5057793;28;20204;-69
2022/01/21 09:57:50;;;;;;;0.97;0.80;;;;;;;2.64;72.24;97655.06;5056077;28;20238;-68
2022/01/21 10:00:19;;;;;;;4.33;2.00;;;;;;;2.82;72.60;97654.72;5057381;28;20209;-68
2022/01/21 10:02:48;;;;;;;0.70;0.70;;;;;;;2.43;72.76;97656.34;5053986;28;20806;-68
2022/01/21 10:05:15;;;;;;;0.60;0.60;;;;;;;2.56;72.71;97659.91;5056041;28;20207;-68
2022/01/21 10:07:44;;;;;;;19.63;1.80;;;;;;;2.32;73.24;97653.59;5055041;28;20657;-66
2022/01/21 10:10:11;;;;;;;2.57;1.20;;;;;;;2.55;72.59;97653.84;5056089;28;20212;-67
2022/01/21 10:12:40;;;;;;;1.50;1.13;;;;;;;2.56;72.65;97654.69;5054532;28;20739;-67
2022/01/21 10:15:07;;;;;;;0.80;0.80;;;;;;;2.64;72.89;97650.69;5055724;28;20239;-67
2022/01/21 10:17:36;;;;;;;4.33;2.17;;;;;;;2.79;72.30;97654.94;5055754;28;20235;-68
2022/01/21 10:20:13;;;;;;;2.83;1.57;;;;;;;2.80;72.43;97655.75;5055752;28;20219;-67
2022/01/21 10:22:57;;;;;;;10.33;2.23;;;;;;;2.75;71.90;97661.28;5053397;28;20196;-68
2022/01/21 10:25:24;;;;;;;1.83;1.10;;;;;;;2.31;72.26;97664.09;5053168;28;20226;-69
2022/01/21 10:27:50;;;;;;;2.83;1.43;;;;;;;2.23;73.75;97664.56;5056647;28;20310;-68
2022/01/21 10:30:20;;;;;;;1.33;1.23;;;;;;;2.59;74.62;97665.72;5056854;28;20661;-67
2022/01/21 10:32:49;;;;;;;14.10;2.30;;;;;;;2.62;73.52;97660.38;5057768;28;20218;-67
2022/01/21 10:35:26;;;;;;;1.70;0.87;;;;;;;2.85;72.99;97657.16;5059776;28;20208;-66
2022/01/21 10:37:56;;;;;;;6.67;2.13;;;;;;;2.75;72.33;97665.63;5060268;28;20223;-67
2022/01/21 10:40:23;;;;;;;30.93;3.53;;;;;;;2.58;72.39;97653.69;5060043;28;20799;-68
2022/01/21 10:42:50;;;;;;;2.13;1.90;;;;;;;2.52;72.97;97656.66;5059030;28;20193;-67
2022/01/21 10:45:17;;;;;;;3.83;2.60;;;;;;;2.54;72.74;97661.75;5059575;28;20719;-67
2022/01/21 10:47:49;;;;;;;1.33;1.00;;;;;;;2.92;72.68;97655.84;5058351;28;20224;-68
2022/01/21 10:50:20;;;;;;;1.63;1.23;;;;;;;2.88;72.56;97661.31;5058194;28;20219;-67
2022/01/21 10:52:51;;;;;;;0.90;0.70;;;;;;;2.97;71.56;97665.97;5057828;28;20212;-68
2022/01/21 10:55:29;;;;;;;15.17;1.53;;;;;;;3.15;71.29;97655.22;5058536;28;20799;-67
2022/01/21 10:58:07;;;;;;;2.60;0.80;;;;;;;3.43;70.22;97652.50;5058788;28;20314;-67
2022/01/21 11:00:34;;;;;;;8.90;1.43;;;;;;;3.01;71.36;97655.25;5057880;28;20199;-68
2022/01/21 11:03:11;;;;;;;2.13;0.73;;;;;;;3.21;72.49;97653.06;5058333;28;20209;-68
2022/01/21 11:05:41;;;;;;;2.00;1.17;;;;;;;2.94;72.65;97651.38;5058368;28;20207;-67
2022/01/21 11:08:10;;;;;;;2.93;2.17;;;;;;;3.01;71.37;97644.00;5058358;28;20270;-68
2022/01/21 11:10:48;;;;;;;0.50;0.50;;;;;;;2.91;73.21;97641.13;5057852;28;20205;-68
2022/01/21 11:13:44;;;;;;;0.80;0.80;;;;;;;3.55;72.49;97634.28;5057837;28;20212;-68
2022/01/21 11:16:16;;;;;;;4.00;0.90;;;;;;;3.77;70.64;97632.78;4956573;28;20839;-68
2022/01/21 11:18:54;;;;;;;2.00;1.40;;;;;;;3.98;68.65;97633.94;5038196;28;20204;-68
2022/01/21 11:21:21;;;;;;;0.60;0.60;;;;;;;3.96;68.26;97625.38;5058474;28;20297;-67
2022/01/21 11:23:48;;;;;;;0.47;0.47;;;;;;;3.39;68.01;97633.63;5058471;28;20208;-67
2022/01/21 11:26:17;;;;;;;10.03;1.10;;;;;;;3.62;68.94;97619.09;5056320;28;20207;-67
2022/01/21 11:28:46;;;;;;;1.40;1.30;;;;;;;3.60;68.11;97602.72;5058508;28;20664;-67
2022/01/21 11:31:15;;;;;;;2.07;0.97;;;;;;;3.55;64.92;97596.97;5057169;28;20216;-68
2022/01/21 11:33:41;;;;;;;0.40;0.40;;;;;;;3.44;66.97;97595.09;5057022;28;20667;-67
2022/01/21 11:36:10;;;;;;;7.80;1.50;;;;;;;3.80;67.38;97593.44;5057540;28;20711;-70
2022/01/21 11:38:38;;;;;;;2.13;1.63;;;;;;;3.72;66.84;97597.53;5057892;28;20219;-69
2022/01/21 11:41:06;;;;;;;3.23;0.67;;;;;;;3.80;68.24;97603.06;5057582;28;20215;-68
2022/01/21 11:43:34;;;;;;;1.47;1.10;;;;;;;3.94;66.36;97597.75;5055846;28;20200;-68
2022/01/21 11:48:53;;;;;;;2.13;1.10;;;;;;;3.84;64.18;97588.88;5016355;28;20681;-68
2022/01/21 11:51:27;;;;;;;0.97;0.70;;;;;;;4.00;65.22;97594.72;5055487;28;21340;-69
2022/01/21 11:53:56;;;;;;;0.50;0.50;;;;;;;4.09;65.12;97589.72;5056820;28;20220;-68
2022/01/21 11:56:43;;;;;;;2.67;1.70;;;;;;;4.16;65.37;97598.75;5058043;28;20224;-70
2022/01/21 11:59:23;;;;;;;5.50;1.13;;;;;;;4.69;63.90;97593.28;5057607;28;20301;-68
2022/01/21 12:01:50;;;;;;;2.03;0.73;;;;;;;4.38;62.72;97594.59;5056713;28;20214;-68
2022/01/21 12:04:39;;;;;;;3.80;1.00;;;;;;;4.77;62.45;97599.59;5057244;28;20200;-70
2022/01/21 12:07:58;;;;;;;2.97;1.03;;;;;;;4.68;63.50;97588.97;5057657;28;20220;-70
2022/01/21 12:10:44;;;;;;;1.50;1.10;;;;;;;4.69;65.16;97598.50;5057450;28;20204;-69
2022/01/21 12:13:15;;;;;;;1.63;0.80;;;;;;;4.23;63.74;97593.03;5055784;28;20204;-68
2022/01/21 12:21:54;;;;;;;6.53;2.50;;;;;;;3.94;64.16;97584.72;5046665;28;20212;-68
2022/01/21 12:25:04;;;;;;;9.97;2.40;;;;;;;3.95;64.37;97591.59;5055320;28;20207;-69
2022/01/21 12:27:31;;;;;;;0.90;0.63;;;;;;;3.63;65.67;97585.09;5056626;28;20274;-69
2022/01/21 12:30:27;;;;;;;4.43;0.57;;;;;;;3.89;66.32;97576.34;5056495;28;20306;-69
2022/01/21 12:32:57;;;;;;;0.67;0.67;;;;;;;3.69;66.71;97580.31;5055427;28;20448;-69
2022/01/21 12:35:24;;;;;;;8.53;1.77;;;;;;;3.68;65.74;97577.81;5056862;28;20196;-69
2022/01/21 12:41:22;;;;;;;3.03;1.23;;;;;;;3.86;66.36;97584.41;5056663;28;20265;-68